Dades meteomassalio
 
Diari Summary for Gener 21, 2019 Units:  English    Metric   Both
« Previous Day
Next Day »
Diari Semanal Mensual Anual Personalitzat
  Actual: Maxima: Minima: Mijana:
Temperatura: 8.9 °F TemperatureC °F 1.7 °F 5.4 °F
Rosada: 3.7 °F DewpointC °F -0.6 °F 2.2 °F
Humitat: 70 % Humidity % 66 % 80 %
Velocitat del vent: 24.1 mph WindSpeedKMH mph 0.0 mph 18.3 mph
Racha vent: 15.8 mph WindSpeedGustKMH mph - -
Vent:WNW - - NW
Pressio: 1020.6 in PressurehPa in 1018.8 in -
Pluja: 0.0 in      
Historical Graphs
 
 
Tabular Data for Gener 21, 2019
Time Temperature Dew Point Pressure Wind Wind Speed Wind Gust Humidity Rainfall Rate (Hourly) solar Conditions
TemperatureC °F DewpointC °F PressurehPa in Calm     Humidity % HourlyPrecipMM in SolarRadiationWatts/m^2 W/m2 Conditions
00:04 4.4 °F 2.0 °F 1018.9 in WNW 20.4 mph 15.9 mph 84 % 0.0 in 0.00 W/m2 RA
00:09 4.4 °F 2.0 °F 1019.0 in WNW 18.5 mph 6.3 mph 84 % 0.0 in 0.00 W/m2 CLR
00:14 4.4 °F 2.0 °F 1019.0 in West 14.8 mph 10.9 mph 84 % 0.0 in 0.00 W/m2 CLR
00:19 4.4 °F 2.0 °F 1019.2 in West 11.1 mph 6.9 mph 84 % 0.0 in 0.00 W/m2 CLR
00:24 4.4 °F 2.0 °F 1019.2 in WNW 13.0 mph 11.1 mph 84 % 0.0 in 0.00 W/m2 CLR
00:29 4.4 °F 2.0 °F 1019.2 in NW 16.1 mph 11.1 mph 84 % 0.0 in 0.00 W/m2 CLR
00:34 3.9 °F 1.6 °F 1019.2 in NW 16.7 mph 13.8 mph 85 % 0.0 in 0.00 W/m2 CLR
00:39 3.9 °F 1.4 °F 1019.2 in NW 14.8 mph 11.1 mph 84 % 0.0 in 0.00 W/m2 CLR
00:44 3.9 °F 1.3 °F 1019.2 in NW 25.9 mph 13.7 mph 83 % 0.0 in 0.00 W/m2 CLR
00:49 4.4 °F 1.8 °F 1019.2 in NW 11.3 mph 7.1 mph 83 % 0.0 in 0.00 W/m2 CLR
00:54 4.4 °F 1.8 °F 1019.2 in NW 16.1 mph 5.6 mph 83 % 0.0 in 0.00 W/m2 CLR
00:59 4.4 °F 1.8 °F 1019.0 in NW 33.3 mph 15.8 mph 83 % 0.0 in 0.00 W/m2 CLR
01:04 5.0 °F 2.3 °F 1019.0 in North 16.7 mph 10.0 mph 83 % 0.0 in 0.00 W/m2 CLR
01:09 5.0 °F 2.3 °F 1019.0 in Calm     83 % 0.0 in 0.00 W/m2 CLR
01:14 5.0 °F 2.3 °F 1018.9 in WNW 11.1 mph 12.4 mph 83 % 0.0 in 0.00 W/m2 CLR
01:19 5.0 °F 2.3 °F 1019.0 in NW 18.5 mph 15.4 mph 83 % 0.0 in 0.00 W/m2 CLR
01:24 4.4 °F 1.8 °F 1019.0 in WNW 18.5 mph 14.0 mph 83 % 0.0 in 0.00 W/m2 CLR
01:29 4.4 °F 1.8 °F 1019.0 in NW 18.5 mph 12.7 mph 83 % 0.0 in 0.00 W/m2 CLR
01:34 4.4 °F 1.8 °F 1019.0 in WNW 17.7 mph 10.1 mph 83 % 0.0 in 0.00 W/m2 CLR
01:39 4.4 °F 1.8 °F 1019.0 in WNW 18.5 mph 12.4 mph 83 % 0.0 in 0.00 W/m2 CLR
01:44 4.4 °F 1.8 °F 1019.1 in NW 18.5 mph 12.1 mph 83 % 0.0 in 0.00 W/m2 CLR
01:49 4.4 °F 1.8 °F 1019.1 in WNW 13.0 mph 7.4 mph 83 % 0.0 in 0.00 W/m2 CLR
01:54 4.4 °F 1.8 °F 1019.0 in NW 16.7 mph 11.6 mph 83 % 0.0 in 0.00 W/m2 CLR
01:59 4.4 °F 1.8 °F 1019.0 in WNW 22.2 mph 13.5 mph 83 % 0.0 in 0.00 W/m2 CLR
02:04 3.9 °F 1.3 °F 1019.1 in NW 18.5 mph 11.1 mph 83 % 0.0 in 0.00 W/m2 CLR
02:09 3.9 °F 1.4 °F 1019.1 in WNW 14.5 mph 9.5 mph 84 % 0.0 in 0.00 W/m2 CLR
02:14 4.4 °F 2.0 °F 1019.0 in NW 18.5 mph 11.6 mph 84 % 0.0 in 0.00 W/m2 CLR
02:19 3.9 °F 1.4 °F 1018.9 in NNW 14.8 mph 10.0 mph 84 % 0.0 in 0.00 W/m2 CLR
02:24 3.9 °F 1.4 °F 1018.9 in NW 4.8 mph 1.0 mph 84 % 0.0 in 0.00 W/m2 CLR
02:29 3.9 °F 1.4 °F 1018.9 in North 17.7 mph 10.8 mph 84 % 0.0 in 0.00 W/m2 CLR
02:34 3.9 °F 1.4 °F 1018.8 in North 16.1 mph 6.6 mph 84 % 0.0 in 0.00 W/m2 CLR
02:39 3.9 °F 1.4 °F 1018.9 in WNW 14.8 mph 10.3 mph 84 % 0.0 in 0.00 W/m2 CLR
02:44 3.9 °F 1.4 °F 1018.9 in West 13.0 mph   84 % 0.0 in 0.00 W/m2 CLR
02:49 4.4 °F 2.0 °F 1018.8 in WSW 18.5 mph 5.8 mph 84 % 0.0 in 0.00 W/m2 CLR
02:54 4.4 °F 2.0 °F 1018.8 in North 12.9 mph 1.1 mph 84 % 0.0 in 0.00 W/m2 CLR
02:59 4.4 °F 2.0 °F 1018.9 in SSW 11.1 mph 5.1 mph 84 % 0.0 in 0.00 W/m2 CLR
03:04 3.9 °F 1.4 °F 1018.9 in Calm     84 % 0.0 in 0.00 W/m2 CLR
03:09 3.9 °F 1.4 °F 1019.0 in Calm     84 % 0.0 in 0.00 W/m2 CLR
03:14 3.3 °F 0.9 °F 1018.9 in Calm     84 % 0.0 in 0.00 W/m2 CLR
03:19 3.3 °F 0.9 °F 1019.0 in Calm     84 % 0.0 in 0.00 W/m2 CLR
03:24 3.3 °F 0.9 °F 1019.1 in Calm     84 % 0.0 in 0.00 W/m2 CLR
03:29 3.3 °F 1.1 °F 1019.1 in NW 11.1 mph 1.9 mph 85 % 0.0 in 0.00 W/m2 CLR
03:34 3.3 °F 1.1 °F 1019.1 in South 5.6 mph 1.4 mph 85 % 0.0 in 0.00 W/m2 CLR
03:39 3.3 °F 0.9 °F 1019.1 in Calm     84 % 0.0 in 0.00 W/m2 CLR
03:44 3.3 °F 1.1 °F 1019.3 in Calm     85 % 0.0 in 0.00 W/m2 CLR
03:49 3.3 °F 1.1 °F 1019.2 in Calm   1.0 mph 85 % 0.0 in 0.00 W/m2 CLR
03:54 3.3 °F 1.1 °F 1019.2 in Calm     85 % 0.0 in 0.00 W/m2 CLR
03:59 3.9 °F 1.6 °F 1019.2 in Calm     85 % 0.0 in 0.00 W/m2 CLR
04:04 3.9 °F 1.6 °F 1019.2 in Calm     85 % 0.0 in 0.00 W/m2 CLR
04:09 3.9 °F 1.6 °F 1019.3 in Calm     85 % 0.0 in 0.00 W/m2 CLR
04:14 3.9 °F 1.8 °F 1019.3 in WSW 7.4 mph 2.6 mph 86 % 0.0 in 0.00 W/m2 CLR
04:19 3.9 °F 1.8 °F 1019.2 in Calm     86 % 0.0 in 0.00 W/m2 CLR
04:24 3.9 °F 1.6 °F 1019.2 in Calm     85 % 0.0 in 0.00 W/m2 CLR
04:29 3.9 °F 1.8 °F 1019.2 in Calm     86 % 0.0 in 0.00 W/m2 CLR
04:34 3.9 °F 1.6 °F 1019.2 in Calm     85 % 0.0 in 0.00 W/m2 CLR
04:39 3.3 °F 1.2 °F 1019.2 in NW 16.1 mph 9.0 mph 86 % 0.0 in 0.00 W/m2 CLR
04:44 2.8 °F 0.7 °F 1019.3 in NW 16.7 mph 12.9 mph 86 % 0.0 in 0.00 W/m2 CLR
04:49 2.2 °F 0.1 °F 1019.3 in WNW 9.3 mph 7.6 mph 86 % 0.0 in 0.00 W/m2 CLR
04:54 2.2 °F 0.1 °F 1019.2 in NW 12.9 mph 7.6 mph 86 % 0.0 in 0.00 W/m2 CLR
04:59 2.2 °F -0.1 °F 1019.2 in West 5.6 mph   85 % 0.0 in 0.00 W/m2 CLR
05:04 1.7 °F -0.6 °F 1019.2 in Calm     85 % 0.0 in 0.00 W/m2 CLR
05:09 2.2 °F -0.1 °F 1019.2 in Calm     85 % 0.0 in 0.00 W/m2 CLR
05:14 2.2 °F 0.1 °F 1019.3 in SW 4.8 mph 2.6 mph 86 % 0.0 in 0.00 W/m2 CLR
05:19 2.2 °F 0.1 °F 1019.4 in SW 9.3 mph 4.5 mph 86 % 0.0 in 0.00 W/m2 CLR
05:24 2.8 °F 0.8 °F 1019.4 in WSW 6.4 mph 2.1 mph 87 % 0.0 in 0.00 W/m2 CLR
05:29 3.9 °F 1.9 °F 1019.5 in WSW 7.4 mph 3.4 mph 87 % 0.0 in 0.00 W/m2 CLR
05:34 3.9 °F 1.8 °F 1019.5 in Calm     86 % 0.0 in 0.00 W/m2 CLR
05:39 3.9 °F 1.8 °F 1019.6 in Calm     86 % 0.0 in 0.00 W/m2 CLR
05:44 3.9 °F 1.8 °F 1019.5 in Calm     86 % 0.0 in 0.00 W/m2 CLR
05:49 3.3 °F 1.2 °F 1019.6 in Calm     86 % 0.0 in 0.00 W/m2 CLR
05:54 2.8 °F 0.8 °F 1019.5 in WNW 5.6 mph 2.6 mph 87 % 0.0 in 0.00 W/m2 CLR
05:59 2.2 °F 0.3 °F 1019.4 in WNW 3.2 mph 2.4 mph 87 % 0.0 in 0.00 W/m2 CLR
06:04 1.7 °F -0.1 °F 1019.5 in NW 16.7 mph 9.8 mph 88 % 0.0 in 0.00 W/m2 CLR
06:09 1.7 °F -0.3 °F 1019.5 in WNW 14.8 mph 10.9 mph 87 % 0.0 in 0.00 W/m2 CLR
06:14 1.7 °F -0.4 °F 1019.6 in WNW 16.7 mph 13.4 mph 86 % 0.0 in 0.00 W/m2 CLR
06:19 1.7 °F -0.6 °F 1019.6 in West 11.1 mph 5.3 mph 85 % 0.0 in 0.00 W/m2 CLR
06:24 1.7 °F -0.6 °F 1019.5 in WSW 11.3 mph 8.8 mph 85 % 0.0 in 0.00 W/m2 CLR
06:29 1.7 °F -0.6 °F 1019.6 in NNW 13.0 mph 8.4 mph 85 % 0.0 in 0.00 W/m2 CLR
06:34 1.7 °F -0.6 °F 1019.6 in NW 14.8 mph 13.2 mph 85 % 0.0 in 0.00 W/m2 CLR
06:39 2.2 °F -0.1 °F 1019.7 in NW 22.2 mph 14.3 mph 85 % 0.0 in 0.00 W/m2 CLR
06:44 3.3 °F 0.9 °F 1019.8 in NW 16.7 mph 13.2 mph 84 % 0.0 in 0.00 W/m2 CLR
06:49 3.9 °F 1.4 °F 1019.8 in NW 18.5 mph 14.8 mph 84 % 0.0 in 0.00 W/m2 CLR
06:54 3.9 °F 1.4 °F 1019.8 in WNW 22.2 mph 15.4 mph 84 % 0.0 in 0.00 W/m2 CLR
06:59 4.4 °F 2.0 °F 1019.9 in West 27.4 mph 17.7 mph 84 % 0.0 in 0.00 W/m2 CLR
07:04 4.4 °F 2.0 °F 1020.0 in NW 18.5 mph 12.6 mph 84 % 0.0 in 0.00 W/m2 CLR
07:09 4.4 °F 2.0 °F 1020.0 in WNW 22.2 mph 9.3 mph 84 % 0.0 in 0.00 W/m2 CLR
07:14 4.4 °F 2.0 °F 1020.2 in West 16.7 mph 12.7 mph 84 % 0.0 in 0.00 W/m2 CLR
07:19 4.4 °F 2.0 °F 1020.1 in WNW 14.5 mph 11.9 mph 84 % 0.0 in 0.00 W/m2 CLR
07:24 4.4 °F 2.0 °F 1020.2 in NW 18.5 mph 11.4 mph 84 % 0.0 in 0.00 W/m2 CLR
07:29 4.4 °F 1.8 °F 1020.2 in NW 18.5 mph 15.3 mph 83 % 0.0 in 0.00 W/m2 CLR
07:34 4.4 °F 1.8 °F 1020.1 in WNW 14.5 mph 10.3 mph 83 % 0.0 in 0.00 W/m2 CLR
07:39 3.9 °F 1.3 °F 1020.2 in WNW 16.7 mph 13.5 mph 83 % 0.0 in 0.00 W/m2 CLR
07:44 3.9 °F 1.3 °F 1020.3 in North 16.7 mph 14.5 mph 83 % 0.0 in 0.00 W/m2 CLR
07:49 4.4 °F 1.8 °F 1020.3 in WNW 14.8 mph 11.9 mph 83 % 0.0 in 0.00 W/m2 CLR
07:54 3.9 °F 1.3 °F 1020.3 in WNW 20.4 mph 14.0 mph 83 % 0.0 in 0.00 W/m2 CLR
07:59 3.9 °F 1.3 °F 1020.3 in NW 20.4 mph 15.0 mph 83 % 0.0 in 0.00 W/m2 CLR
08:04 3.9 °F 1.3 °F 1020.4 in NW 22.2 mph 17.2 mph 83 % 0.0 in 0.00 W/m2 CLR
08:09 3.9 °F 1.3 °F 1020.3 in NW 14.8 mph 14.2 mph 83 % 0.0 in 0.00 W/m2 OVC
08:12 3.9 °F 1.4 °F 1020.3 in NW 18.5 mph 14.3 mph 84 % 0.0 in 0.00 W/m2 OVC
08:19 3.9 °F 1.3 °F 1020.4 in WNW 3.7 mph   83 % 0.0 in 0.00 W/m2 OVC
08:24 3.9 °F 1.3 °F 1020.5 in WNW 14.8 mph 6.0 mph 83 % 0.0 in 5.00 W/m2 OVC
08:29 3.9 °F 1.4 °F 1020.6 in WNW 7.4 mph 7.9 mph 84 % 0.0 in 7.00 W/m2 OVC
08:34 3.9 °F 1.4 °F 1020.8 in Calm     84 % 0.0 in 11.00 W/m2 OVC
08:39 3.9 °F 1.4 °F 1020.7 in NW 8.0 mph 5.5 mph 84 % 0.0 in 9.00 W/m2 OVC
08:44 3.9 °F 1.4 °F 1020.7 in WNW 14.8 mph 11.4 mph 84 % 0.0 in 12.00 W/m2 OVC
08:47 3.9 °F 1.3 °F 1020.7 in NW 16.7 mph 13.4 mph 83 % 0.0 in 16.00 W/m2 OVC
08:54 3.9 °F 1.3 °F 1020.7 in WNW 18.5 mph 14.5 mph 83 % 0.0 in 19.00 W/m2 OVC
08:59 3.9 °F 1.3 °F 1020.7 in NW 20.4 mph 16.9 mph 83 % 0.0 in 19.00 W/m2 OVC
09:04 3.9 °F 1.1 °F 1020.8 in NNW 25.9 mph 19.8 mph 82 % 0.0 in 21.00 W/m2 OVC
09:09 4.4 °F 1.8 °F 1020.8 in WNW 22.2 mph 16.9 mph 83 % 0.0 in 49.00 W/m2 OVC
09:14 4.4 °F 1.8 °F 1020.8 in NW 16.7 mph 19.0 mph 83 % 0.0 in 56.00 W/m2 OVC
09:19 4.4 °F 1.6 °F 1020.9 in WNW 24.1 mph 13.4 mph 82 % 0.0 in 86.00 W/m2 OVC
09:24 4.4 °F 1.6 °F 1020.9 in NNW 27.8 mph 15.6 mph 82 % 0.0 in 98.00 W/m2 BKN
09:29 5.0 °F 2.2 °F 1020.9 in NW 24.1 mph 13.5 mph 82 % 0.0 in 116.00 W/m2 FEW
09:34 5.0 °F 2.2 °F 1021.1 in NW 22.2 mph 19.1 mph 82 % 0.0 in 132.00 W/m2 CLR
09:39 5.0 °F 2.2 °F 1021.1 in NNW 20.9 mph 16.1 mph 82 % 0.0 in 146.00 W/m2 CLR
09:44 5.0 °F 2.2 °F 1021.1 in WNW 24.1 mph 20.8 mph 82 % 0.0 in 162.00 W/m2 CLR
09:49 5.0 °F 2.2 °F 1021.1 in NW 31.5 mph 17.2 mph 82 % 0.0 in 178.00 W/m2 CLR
09:54 5.0 °F 2.2 °F 1021.4 in NNW 18.5 mph 12.1 mph 82 % 0.0 in 195.00 W/m2 CLR
09:59 5.0 °F 2.0 °F 1021.4 in NW 33.3 mph 16.6 mph 81 % 0.0 in 69.00 W/m2 CLR
10:04 5.6 °F 2.6 °F 1021.5 in NNW 11.1 mph 6.8 mph 81 % 0.0 in 230.00 W/m2 CLR
10:09 5.6 °F 2.6 °F 1021.4 in NW 17.7 mph 11.6 mph 81 % 0.0 in 248.00 W/m2 CLR
10:14 5.6 °F 2.6 °F 1021.6 in WNW 18.5 mph 16.6 mph 81 % 0.0 in 271.00 W/m2 CLR
10:19 5.6 °F 2.4 °F 1021.6 in WNW 24.1 mph 13.4 mph 80 % 0.0 in 281.00 W/m2 CLR
10:24 6.1 °F 2.9 °F 1021.6 in WNW 14.8 mph 7.4 mph 80 % 0.0 in 295.00 W/m2 CLR
10:29 6.1 °F 2.9 °F 1021.7 in NW 22.2 mph 7.7 mph 80 % 0.0 in 306.00 W/m2 CLR
10:33 6.1 °F 2.9 °F 1021.7 in WNW 14.8 mph 7.9 mph 80 % 0.0 in 318.00 W/m2 CLR
10:39 6.1 °F 2.7 °F 1021.9 in NW 18.5 mph 12.4 mph 79 % 0.0 in 316.00 W/m2 CLR
10:44 6.1 °F 2.7 °F 1021.7 in NW 14.8 mph 13.2 mph 79 % 0.0 in 329.00 W/m2 CLR
10:49 6.7 °F 3.3 °F 1021.8 in NW 18.5 mph 11.9 mph 79 % 0.0 in 339.00 W/m2 CLR
10:54 6.7 °F 3.1 °F 1021.8 in NW 31.5 mph 15.4 mph 78 % 0.0 in 348.00 W/m2 CLR
10:59 6.7 °F 3.1 °F 1021.8 in NW 14.8 mph 9.3 mph 78 % 0.0 in 362.00 W/m2 CLR
11:03 6.7 °F 2.9 °F 1021.9 in NW 20.9 mph 12.7 mph 77 % 0.0 in 366.00 W/m2 CLR
11:09 7.2 °F 3.4 °F 1022.0 in NW 22.2 mph 18.3 mph 77 % 0.0 in 380.00 W/m2 CLR
11:14 7.2 °F 3.3 °F 1022.1 in WNW 22.5 mph 19.0 mph 76 % 0.0 in 404.00 W/m2 CLR
11:19 7.2 °F 3.3 °F 1022.1 in NNW 18.5 mph 14.8 mph 76 % 0.0 in 401.00 W/m2 CLR
11:24 7.2 °F 3.1 °F 1022.1 in NNW 24.1 mph 17.9 mph 75 % 0.0 in 388.00 W/m2 CLR
11:29 7.8 °F 3.4 °F 1022.1 in NNW 33.3 mph 28.5 mph 74 % 0.0 in 420.00 W/m2 CLR
11:34 7.8 °F 3.6 °F 1022.0 in NNW 29.6 mph 23.3 mph 75 % 0.0 in 429.00 W/m2 CLR
11:39 7.8 °F 3.6 °F 1022.0 in NNW 24.1 mph 18.3 mph 75 % 0.0 in 432.00 W/m2 CLR
11:44 7.8 °F 3.4 °F 1022.1 in NW 16.7 mph 8.0 mph 74 % 0.0 in 466.00 W/m2 CLR
11:49 7.8 °F 3.4 °F 1022.1 in North 31.5 mph 19.3 mph 74 % 0.0 in 455.00 W/m2 CLR
11:54 7.8 °F 3.4 °F 1022.1 in North 31.5 mph 25.7 mph 74 % 0.0 in 374.00 W/m2 CLR
11:59 7.8 °F 3.4 °F 1022.0 in NNW 22.5 mph 20.0 mph 74 % 0.0 in 534.00 W/m2 CLR
12:04 8.3 °F 3.6 °F 1022.1 in NNW 37.0 mph 23.5 mph 72 % 0.0 in 401.00 W/m2 CLR
12:09 8.3 °F 3.8 °F 1022.1 in NNW 37.0 mph 28.8 mph 73 % 0.0 in 114.00 W/m2 CLR
12:14 7.8 °F 3.4 °F 1022.0 in NNW 27.4 mph 21.6 mph 74 % 0.0 in 134.00 W/m2 CLR
12:19 7.8 °F 3.4 °F 1021.9 in NNE 31.5 mph 19.1 mph 74 % 0.0 in 577.00 W/m2 CLR
12:24 7.8 °F 3.6 °F 1021.8 in NNW 27.8 mph 20.4 mph 75 % 0.0 in 608.00 W/m2 CLR
12:29 8.3 °F 3.8 °F 1021.8 in NNW 25.9 mph 17.5 mph 73 % 0.0 in 104.00 W/m2 CLR
12:34 8.3 °F 3.8 °F 1021.7 in NNW 29.6 mph 24.3 mph 73 % 0.0 in 190.00 W/m2 CLR
12:39 7.8 °F 3.2 °F 1021.8 in NW 33.3 mph 22.4 mph 73 % 0.0 in 452.00 W/m2 CLR
12:44 7.8 °F 3.2 °F 1021.6 in NW 33.3 mph 24.8 mph 73 % 0.0 in 149.00 W/m2 CLR
12:49 7.8 °F 3.2 °F 1021.6 in North 29.0 mph 22.4 mph 73 % 0.0 in 146.00 W/m2 CLR
12:54 7.8 °F 3.2 °F 1021.6 in NNW 33.3 mph 30.6 mph 73 % 0.0 in 111.00 W/m2 CLR
12:59 7.8 °F 3.2 °F 1021.6 in NNE 25.7 mph 25.1 mph 73 % 0.0 in 95.00 W/m2 CLR
13:04 7.8 °F 3.4 °F 1021.4 in NW 31.5 mph 13.0 mph 74 % 0.0 in 142.00 W/m2 CLR
13:09 8.3 °F 3.9 °F 1021.5 in NW 31.5 mph 26.5 mph 74 % 0.0 in 594.00 W/m2 CLR
13:14 8.9 °F 4.3 °F 1021.5 in NNW 40.7 mph 28.5 mph 73 % 0.0 in 95.00 W/m2 CLR
13:19 8.3 °F 3.9 °F 1021.3 in NNW 35.2 mph 19.0 mph 74 % 0.0 in 615.00 W/m2 CLR
13:24 8.9 °F 4.3 °F 1021.3 in North 31.5 mph 26.9 mph 73 % 0.0 in 113.00 W/m2 CLR
13:29 8.9 °F 4.3 °F 1021.3 in NNW 32.2 mph 22.4 mph 73 % 0.0 in 134.00 W/m2 CLR
13:34 8.3 °F 3.9 °F 1021.3 in NNW 31.5 mph 28.3 mph 74 % 0.0 in 578.00 W/m2 CLR
13:39 8.3 °F 3.8 °F 1021.2 in NW 29.6 mph 23.0 mph 73 % 0.0 in 111.00 W/m2 CLR
13:44 8.3 °F 3.9 °F 1021.2 in NW 24.1 mph 19.6 mph 74 % 0.0 in 174.00 W/m2 CLR
13:49 8.3 °F 3.9 °F 1021.1 in NNW 25.9 mph 20.4 mph 74 % 0.0 in 111.00 W/m2 CLR
13:54 8.3 °F 3.9 °F 1021.0 in NW 31.5 mph 24.8 mph 74 % 0.0 in 111.00 W/m2 CLR
13:59 8.3 °F 3.8 °F 1021.0 in NNW 29.6 mph 22.8 mph 73 % 0.0 in 176.00 W/m2 CLR
14:04 8.3 °F 3.8 °F 1021.0 in NNW 29.0 mph 26.1 mph 73 % 0.0 in 104.00 W/m2 CLR
14:09 8.3 °F 3.8 °F 1021.0 in NW 20.4 mph 17.2 mph 73 % 0.0 in 171.00 W/m2 CLR
14:14 8.3 °F 3.9 °F 1020.9 in NW 19.3 mph 16.1 mph 74 % 0.0 in 171.00 W/m2 CLR
14:19 8.9 °F 4.3 °F 1020.9 in NNW 27.8 mph 17.1 mph 73 % 0.0 in 186.00 W/m2 CLR
14:24 8.9 °F 4.3 °F 1020.9 in NNW 24.1 mph 16.9 mph 73 % 0.0 in 83.00 W/m2 CLR
14:29 8.3 °F 3.4 °F 1020.9 in North 33.3 mph 24.0 mph 71 % 0.0 in 111.00 W/m2 CLR
14:34 8.3 °F 3.4 °F 1020.9 in North 31.5 mph 24.1 mph 71 % 0.0 in 114.00 W/m2 CLR
14:39 8.3 °F 3.6 °F 1020.7 in North 24.1 mph 16.9 mph 72 % 0.0 in 461.00 W/m2 CLR
14:44 8.3 °F 3.4 °F 1020.7 in North 33.3 mph 22.0 mph 71 % 0.0 in 274.00 W/m2 CLR
14:49 8.9 °F 3.7 °F 1020.8 in NW 27.8 mph 21.6 mph 70 % 0.0 in 427.00 W/m2 CLR
14:54 9.4 °F 4.1 °F 1020.6 in NW 31.5 mph 23.3 mph 69 % 0.0 in 513.00 W/m2 CLR
14:59 10.0 °F 4.8 °F 1020.7 in North 33.8 mph 27.5 mph 70 % 0.0 in 508.00 W/m2 CLR
15:04 10.6 °F 5.1 °F 1020.6 in NW 31.5 mph 20.0 mph 69 % 0.0 in 529.00 W/m2 CLR
15:09 10.6 °F 4.7 °F 1020.5 in NNW 22.2 mph 15.0 mph 67 % 0.0 in 513.00 W/m2 CLR
15:14 11.1 °F 5.0 °F 1020.7 in NNW 25.9 mph 21.2 mph 66 % 0.0 in 98.00 W/m2 CLR
15:19 10.0 °F 4.3 °F 1020.7 in North 31.5 mph 25.3 mph 68 % 0.0 in 76.00 W/m2 CLR
15:24 8.9 °F 3.5 °F 1020.6 in NNW 31.5 mph 22.5 mph 69 % 0.0 in 116.00 W/m2 CLR
15:29 9.4 °F 4.1 °F 1020.7 in NW 29.6 mph 23.3 mph 69 % 0.0 in 116.00 W/m2 CLR
15:34 9.4 °F 4.1 °F 1020.7 in NNW 37.0 mph 27.7 mph 69 % 0.0 in 371.00 W/m2 CLR
15:39 9.4 °F 4.2 °F 1020.7 in NNW 33.8 mph 23.8 mph 70 % 0.0 in 77.00 W/m2 CLR
15:44 8.9 °F 3.5 °F 1020.7 in NNW 30.6 mph 26.4 mph 69 % 0.0 in 378.00 W/m2 CLR
15:49 9.4 °F 3.8 °F 1020.7 in North 25.9 mph 22.2 mph 68 % 0.0 in 86.00 W/m2 CLR
15:54 8.9 °F 3.7 °F 1020.8 in NW 27.8 mph 18.0 mph 70 % 0.0 in 58.00 W/m2 FEW
15:59 8.3 °F 3.2 °F 1020.8 in NNW 22.2 mph 15.0 mph 70 % 0.0 in 53.00 W/m2 FEW
16:04 8.3 °F 3.4 °F 1020.8 in NW 24.1 mph 16.1 mph 71 % 0.0 in 67.00 W/m2 FEW
16:09 8.3 °F 3.4 °F 1020.6 in NW 25.9 mph 21.7 mph 71 % 0.0 in 58.00 W/m2 FEW
16:14 8.3 °F 3.6 °F 1020.7 in NW 20.4 mph 17.7 mph 72 % 0.0 in 260.00 W/m2 FEW
16:19 8.3 °F 3.4 °F 1020.6 in NW 17.7 mph 15.9 mph 71 % 0.0 in 227.00 W/m2 CLR
16:24 8.9 °F 3.7 °F 1020.6 in WNW 24.1 mph 15.8 mph 70 % 0.0 in 209.00 W/m2 CLR
Lo Temps de Massalio
Compliments of Weather Underground - 1 mb